Time;durP1;ratioP1;P1;durP2;ratioP2;P2;SDS_P1;SDS_P2;PMS_P1;PMS_P2;Temp;Humidity;BMP_temperature;BMP_pressure;BME280_temperature;BME280_humidity;BME280_pressure;Samples;Min_cycle;Max_cycle;Signal;HPM_P1;HPM_P2
2023/02/09 00:02:13;;;;;;;10.40;3.55;;;;;;;;;;10446465;28;20045;-78
2023/02/09 00:07:16;;;;;;;9.60;3.13;;;;;;;;;;10445421;28;20044;-79
2023/02/09 00:17:40;;;;;;;6.83;3.33;;;;;;;;;;10443223;28;20063;-80
2023/02/09 00:22:43;;;;;;;7.23;2.57;;;;;;;;;;10450549;28;20079;-80
2023/02/09 00:27:47;;;;;;;10.40;3.60;;;;;;;;;;10448963;28;20122;-79
2023/02/09 00:32:49;;;;;;;6.82;2.03;;;;;;;;;;10431821;28;20037;-78
2023/02/09 00:37:52;;;;;;;6.23;2.97;;;;;;;;;;10438019;28;20509;-79
2023/02/09 00:42:56;;;;;;;6.90;3.63;;;;;;;;;;10449106;28;20038;-79
2023/02/09 00:47:59;;;;;;;32.65;6.47;;;;;;;;;;10445346;28;20071;-79
2023/02/09 00:53:02;;;;;;;18.53;5.50;;;;;;;;;;10445641;28;20490;-80
2023/02/09 00:58:06;;;;;;;2.37;1.80;;;;;;;;;;10460110;28;20140;-80
2023/02/09 01:03:08;;;;;;;14.55;5.32;;;;;;;;;;10473429;28;20083;-79
2023/02/09 01:08:11;;;;;;;7.87;3.30;;;;;;;;;;10489103;28;20044;-79
2023/02/09 01:13:15;;;;;;;14.57;3.57;;;;;;;;;;10492289;28;20048;-78
2023/02/09 01:18:18;;;;;;;8.73;4.00;;;;;;;;;;10467738;28;20049;-80
2023/02/09 01:23:20;;;;;;;8.37;2.00;;;;;;;;;;10452123;28;20532;-80
2023/02/09 01:28:24;;;;;;;12.33;4.20;;;;;;;;;;10443972;28;20352;-80
2023/02/09 01:33:27;;;;;;;;;;;;;;;;;;10445440;28;20136;-79
2023/02/09 01:38:30;;;;;;;9.93;3.77;;;;;;;;;;10442047;28;19920;-80
2023/02/09 01:43:48;;;;;;;16.97;4.77;;;;;;;;;;10448280;28;20056;-81
2023/02/09 01:48:53;;;;;;;16.23;4.83;;;;;;;;;;10446990;28;20041;-80
2023/02/09 01:53:57;;;;;;;9.90;3.73;;;;;;;;;;10440673;28;20049;-79
2023/02/09 01:59:00;;;;;;;6.23;1.77;;;;;;;;;;10441017;28;20037;-80
2023/02/09 02:04:05;;;;;;;11.30;2.47;;;;;;;;;;10445799;28;20070;-80
2023/02/09 02:09:09;;;;;;;2.23;0.80;;;;;;;;;;10439206;28;20473;-80
2023/02/09 02:14:27;;;;;;;4.85;2.45;;;;;;;;;;10440890;28;20114;-78
2023/02/09 02:19:41;;;;;;;3.07;1.67;;;;;;;;;;10439109;28;20516;-79
2023/02/09 02:24:53;;;;;;;7.60;3.00;;;;;;;;;;10440963;28;20040;-80
2023/02/09 02:30:12;;;;;;;9.13;3.20;;;;;;;;;;10441598;28;20052;-80
2023/02/09 02:35:18;;;;;;;1.20;0.70;;;;;;;;;;10432772;28;20075;-79
2023/02/09 02:40:25;;;;;;;2.57;1.40;;;;;;;;;;10437130;28;20037;-79
2023/02/09 02:45:32;;;;;;;1.17;1.07;;;;;;;;;;10431036;28;20049;-78
2023/02/09 02:50:39;;;;;;;3.80;1.97;;;;;;;;;;10441583;28;20049;-79
2023/02/09 02:55:42;;;;;;;4.80;1.83;;;;;;;;;;10441148;28;20490;-79
2023/02/09 03:00:48;;;;;;;7.25;0.98;;;;;;;;;;10439420;28;20044;-79
2023/02/09 03:05:52;;;;;;;3.20;1.40;;;;;;;;;;10440577;28;20049;-79
2023/02/09 03:10:55;;;;;;;2.93;1.43;;;;;;;;;;10436555;28;20048;-79
2023/02/09 03:16:04;;;;;;;6.87;2.43;;;;;;;;;;10439216;28;20037;-79
2023/02/09 03:21:13;;;;;;;2.97;1.80;;;;;;;;;;10442037;28;20048;-79
2023/02/09 03:26:19;;;;;;;3.17;1.80;;;;;;;;;;10445355;28;20085;-79
2023/02/09 03:31:22;;;;;;;5.10;1.80;;;;;;;;;;10445578;28;20433;-78
2023/02/09 03:36:31;;;;;;;3.55;1.70;;;;;;;;;;10447841;28;20052;-78
2023/02/09 03:41:34;;;;;;;7.83;2.87;;;;;;;;;;10449083;28;20056;-78
2023/02/09 03:46:36;;;;;;;9.27;2.20;;;;;;;;;;10447297;28;20041;-79
2023/02/09 03:51:41;;;;;;;5.03;2.10;;;;;;;;;;10447134;28;20048;-79
2023/02/09 03:56:44;;;;;;;4.30;2.70;;;;;;;;;;10450008;28;20037;-78
2023/02/09 04:01:47;;;;;;;6.07;3.00;;;;;;;;;;10456022;28;20128;-79
2023/02/09 04:06:52;;;;;;;28.73;7.43;;;;;;;;;;10448272;28;20040;-80
2023/02/09 04:11:57;;;;;;;22.40;3.97;;;;;;;;;;10440376;28;20045;-80
2023/02/09 04:17:00;;;;;;;12.17;4.03;;;;;;;;;;10454903;28;20059;-80
2023/02/09 04:22:04;;;;;;;5.10;3.10;;;;;;;;;;10448961;28;20155;-79
2023/02/09 04:27:06;;;;;;;15.68;5.68;;;;;;;;;;10454273;28;20379;-79
2023/02/09 04:32:09;;;;;;;19.03;6.00;;;;;;;;;;10449772;28;20048;-79
2023/02/09 04:37:14;;;;;;;4.47;3.07;;;;;;;;;;10452736;28;20141;-78
2023/02/09 04:42:17;;;;;;;11.43;3.77;;;;;;;;;;10450029;28;20036;-79
2023/02/09 04:47:20;;;;;;;11.87;3.87;;;;;;;;;;10453482;28;20068;-79
2023/02/09 04:52:24;;;;;;;15.17;4.37;;;;;;;;;;10451011;28;20037;-79
2023/02/09 05:02:47;;;;;;;13.87;5.00;;;;;;;;;;10451311;28;20067;-78
2023/02/09 05:07:51;;;;;;;3.90;1.43;;;;;;;;;;10454012;28;20189;-78
2023/02/09 05:12:53;;;;;;;10.82;4.10;;;;;;;;;;10457655;28;20044;-79
2023/02/09 05:17:56;;;;;;;17.47;5.17;;;;;;;;;;10478538;28;20196;-79
2023/02/09 05:23:00;;;;;;;10.30;3.83;;;;;;;;;;10481854;28;20068;-78
2023/02/09 05:28:03;;;;;;;10.63;5.28;;;;;;;;;;10481398;28;20066;-78
2023/02/09 05:33:06;;;;;;;14.53;4.70;;;;;;;;;;10458686;28;20067;-77
2023/02/09 05:38:10;;;;;;;2.27;0.93;;;;;;;;;;10453316;28;20137;-79
2023/02/09 05:43:13;;;;;;;;;;;;;;;;;;10451928;28;20645;-79
2023/02/09 05:48:16;;;;;;;16.63;5.73;;;;;;;;;;10449841;28;19925;-80
2023/02/09 05:53:20;;;;;;;30.90;10.80;;;;;;;;;;10451060;28;20522;-79
2023/02/09 05:58:22;;;;;;;;;;;;;;;;;;10466315;28;20099;-79
2023/02/09 06:03:25;;;;;;;10.93;4.37;;;;;;;;;;10440644;28;20297;-79
2023/02/09 06:08:30;;;;;;;18.90;7.20;;;;;;;;;;10437308;28;20458;-78
2023/02/09 06:13:33;;;;;;;5.10;2.43;;;;;;;;;;10451877;28;20239;-78
2023/02/09 06:18:37;;;;;;;27.60;9.13;;;;;;;;;;10436533;28;20551;-79
2023/02/09 06:23:41;;;;;;;8.98;4.13;;;;;;;;;;10440088;28;20061;-79
2023/02/09 06:28:44;;;;;;;31.60;11.10;;;;;;;;;;10440193;28;20561;-79
2023/02/09 06:33:47;;;;;;;13.23;4.47;;;;;;;;;;10441206;28;20037;-79
2023/02/09 06:38:51;;;;;;;14.03;5.57;;;;;;;;;;10444044;28;20505;-79
2023/02/09 06:43:53;;;;;;;;;;;;;;;;;;10446221;28;20051;-79
2023/02/09 06:48:56;;;;;;;13.00;5.63;;;;;;;;;;10439332;28;20124;-79
2023/02/09 06:54:02;;;;;;;12.23;4.77;;;;;;;;;;10443164;28;20045;-79
2023/02/09 06:59:05;;;;;;;16.80;5.40;;;;;;;;;;10433034;28;20033;-79
2023/02/09 07:04:08;;;;;;;17.90;5.90;;;;;;;;;;10440483;28;20049;-80
2023/02/09 07:09:12;;;;;;;6.00;2.43;;;;;;;;;;10456939;28;20056;-79
2023/02/09 07:14:14;;;;;;;24.92;7.35;;;;;;;;;;10449247;28;20056;-80
2023/02/09 07:19:17;;;;;;;23.93;7.27;;;;;;;;;;10446167;28;20037;-79
2023/02/09 07:24:21;;;;;;;17.70;7.40;;;;;;;;;;10440791;28;20106;-79
2023/02/09 07:29:24;;;;;;;20.80;8.32;;;;;;;;;;10444691;28;20124;-79
2023/02/09 07:34:27;;;;;;;23.40;9.23;;;;;;;;;;10446758;28;20034;-78
2023/02/09 07:39:31;;;;;;;22.88;8.45;;;;;;;;;;10447147;28;20498;-79
2023/02/09 07:44:34;;;;;;;19.23;7.97;;;;;;;;;;10439516;28;20048;-79
2023/02/09 07:49:37;;;;;;;22.15;9.13;;;;;;;;;;10444013;28;20044;-80
2023/02/09 07:54:41;;;;;;;21.45;9.25;;;;;;;;;;10442377;28;20152;-79
2023/02/09 07:59:44;;;;;;;21.55;8.90;;;;;;;;;;10443306;28;20515;-80
2023/02/09 08:04:47;;;;;;;21.98;8.93;;;;;;;;;;10445018;28;20502;-79
2023/02/09 08:09:51;;;;;;;20.37;8.37;;;;;;;;;;10458125;28;20106;-81
2023/02/09 08:14:54;;;;;;;24.20;10.25;;;;;;;;;;10471413;28;20099;-80
2023/02/09 08:19:59;;;;;;;19.13;8.55;;;;;;;;;;10478989;28;20036;-82
2023/02/09 08:25:04;;;;;;;22.30;10.05;;;;;;;;;;10499274;28;20037;-81
2023/02/09 08:30:07;;;;;;;24.00;10.55;;;;;;;;;;10468780;28;20244;-81
2023/02/09 08:35:10;;;;;;;25.98;10.70;;;;;;;;;;10462680;28;20037;-81
2023/02/09 08:40:14;;;;;;;32.00;11.85;;;;;;;;;;10443088;28;20588;-80
2023/02/09 08:45:18;;;;;;;20.77;10.43;;;;;;;;;;10440349;28;20100;-82
2023/02/09 08:50:21;;;;;;;20.45;9.95;;;;;;;;;;10446323;28;20071;-82
2023/02/09 08:55:24;;;;;;;32.03;10.63;;;;;;;;;;10434288;28;20041;-81
2023/02/09 09:00:28;;;;;;;19.25;9.85;;;;;;;;;;10446344;28;20696;-81
2023/02/09 09:05:31;;;;;;;16.48;8.68;;;;;;;;;;10443024;28;20045;-81
2023/02/09 09:10:34;;;;;;;13.85;7.85;;;;;;;;;;10444562;28;20058;-81
2023/02/09 09:15:38;;;;;;;14.30;8.82;;;;;;;;;;10447906;28;20037;-81
2023/02/09 09:20:41;;;;;;;15.82;8.80;;;;;;;;;;10444389;28;20060;-81
2023/02/09 09:25:44;;;;;;;15.95;8.18;;;;;;;;;;10436424;28;20544;-82
2023/02/09 09:30:49;;;;;;;14.27;8.25;;;;;;;;;;10440538;28;20089;-81
2023/02/09 09:35:52;;;;;;;16.23;7.82;;;;;;;;;;10439100;28;20106;-82
2023/02/09 09:40:54;;;;;;;17.77;8.05;;;;;;;;;;10447793;28;20040;-82
2023/02/09 09:45:57;;;;;;;;;;;;;;;;;;10440697;28;20042;-81
2023/02/09 09:51:04;;;;;;;13.80;6.93;;;;;;;;;;10442125;28;19999;-81
2023/02/09 09:56:09;;;;;;;13.23;6.80;;;;;;;;;;10456716;28;20043;-82
2023/02/09 10:01:12;;;;;;;16.33;8.05;;;;;;;;;;10440185;28;20124;-81
2023/02/09 10:06:17;;;;;;;14.65;7.97;;;;;;;;;;10437708;28;20059;-82
2023/02/09 10:11:23;;;;;;;15.25;7.68;;;;;;;;;;10455709;28;20064;-82
2023/02/09 10:16:27;;;;;;;14.45;7.40;;;;;;;;;;10447039;28;20033;-81
2023/02/09 10:21:34;;;;;;;88.70;12.43;;;;;;;;;;10440751;28;20772;-82
2023/02/09 10:26:38;;;;;;;11.60;6.72;;;;;;;;;;10439655;28;20494;-82
2023/02/09 10:31:43;;;;;;;12.25;6.45;;;;;;;;;;10454620;28;20481;-82
2023/02/09 10:36:49;;;;;;;22.65;7.07;;;;;;;;;;10439200;28;20117;-82
2023/02/09 10:41:52;;;;;;;14.07;6.60;;;;;;;;;;10437849;28;20053;-81
2023/02/09 10:47:08;;;;;;;12.05;6.88;;;;;;;;;;10433648;28;20068;-82
2023/02/09 10:52:18;;;;;;;10.98;6.88;;;;;;;;;;10431565;28;20036;-82
2023/02/09 10:57:24;;;;;;;12.05;6.53;;;;;;;;;;10441018;28;20057;-82
2023/02/09 11:02:33;;;;;;;12.85;6.30;;;;;;;;;;10443166;28;20040;-82
2023/02/09 11:07:42;;;;;;;9.35;5.90;;;;;;;;;;10434803;28;20071;-82
2023/02/09 11:18:06;;;;;;;9.65;5.72;;;;;;;;;;10429635;28;20052;-81
2023/02/09 11:23:31;;;;;;;9.43;6.20;;;;;;;;;;10431691;28;20494;-81
2023/02/09 11:28:55;;;;;;;9.05;5.32;;;;;;;;;;10441854;28;20310;-82
2023/02/09 11:34:14;;;;;;;10.57;6.45;;;;;;;;;;10432427;28;20287;-81
2023/02/09 11:44:44;;;;;;;14.52;7.57;;;;;;;;;;10429596;28;20106;-81
2023/02/09 11:49:58;;;;;;;11.18;6.90;;;;;;;;;;10435138;28;20052;-81
2023/02/09 11:55:19;;;;;;;12.15;8.25;;;;;;;;;;10436138;28;20110;-82
2023/02/09 12:00:26;;;;;;;12.80;7.85;;;;;;;;;;10434398;28;20132;-81
2023/02/09 12:05:44;;;;;;;17.92;8.80;;;;;;;;;;10441565;28;20049;-81
2023/02/09 12:10:58;;;;;;;12.68;7.47;;;;;;;;;;10445986;28;20063;-81
2023/02/09 12:16:04;;;;;;;12.95;7.53;;;;;;;;;;10438841;28;20586;-81
2023/02/09 12:21:27;;;;;;;11.82;7.20;;;;;;;;;;10444034;28;20071;-81
2023/02/09 12:26:41;;;;;;;12.95;7.72;;;;;;;;;;10442968;28;20048;-80
2023/02/09 12:32:00;;;;;;;12.15;7.55;;;;;;;;;;10437814;28;20429;-81
2023/02/09 12:37:23;;;;;;;14.13;7.88;;;;;;;;;;10407570;28;20045;-81
2023/02/09 12:42:41;;;;;;;10.55;7.20;;;;;;;;;;10441163;28;20557;-81
2023/02/09 12:48:00;;;;;;;13.32;7.18;;;;;;;;;;10444055;28;20086;-81
2023/02/09 12:53:31;;;;;;;12.88;7.75;;;;;;;;;;10422640;28;20072;-82
2023/02/09 12:58:56;;;;;;;16.05;8.63;;;;;;;;;;10446333;28;20041;-82
2023/02/09 13:04:06;;;;;;;13.73;8.23;;;;;;;;;;10436773;28;20141;-81
2023/02/09 13:09:18;;;;;;;15.95;8.43;;;;;;;;;;10440712;28;20559;-82
2023/02/09 13:14:25;;;;;;;13.75;8.73;;;;;;;;;;10442123;28;20157;-80
2023/02/09 13:19:47;;;;;;;13.50;8.00;;;;;;;;;;10443158;28;20044;-82
2023/02/09 13:25:07;;;;;;;15.60;8.63;;;;;;;;;;10439605;28;20163;-81
2023/02/09 13:30:32;;;;;;;16.90;8.43;;;;;;;;;;10513495;28;20076;-81
2023/02/09 13:35:37;;;;;;;13.98;7.80;;;;;;;;;;10521676;28;20048;-81
2023/02/09 13:41:02;;;;;;;15.30;7.50;;;;;;;;;;10523013;28;20147;-82
2023/02/09 13:46:27;;;;;;;14.63;8.10;;;;;;;;;;10503482;28;20036;-81
2023/02/09 13:51:35;;;;;;;19.23;8.27;;;;;;;;;;10529864;28;20039;-81
2023/02/09 13:56:44;;;;;;;17.42;7.95;;;;;;;;;;10500429;28;20042;-81
2023/02/09 14:01:53;;;;;;;16.27;7.72;;;;;;;;;;10499401;28;20036;-81
2023/02/09 14:18:30;;;;;;;16.35;7.25;;;;;;;;;;10513227;28;20055;-81
2023/02/09 14:23:39;;;;;;;17.70;7.90;;;;;;;;;;10507038;28;20093;-82
2023/02/09 14:28:46;;;;;;;13.68;6.63;;;;;;;;;;10525649;28;20039;-81
2023/02/09 14:34:03;;;;;;;18.25;7.28;;;;;;;;;;10522952;28;20051;-81
2023/02/09 14:39:11;;;;;;;12.02;6.45;;;;;;;;;;10507632;28;20052;-81
2023/02/09 14:44:20;;;;;;;14.32;7.00;;;;;;;;;;10517852;28;21603;-80
2023/02/09 14:49:41;;;;;;;14.48;6.50;;;;;;;;;;10502412;28;20044;-80
2023/02/09 14:54:49;;;;;;;18.60;7.40;;;;;;;;;;10504483;28;20067;-81
2023/02/09 15:00:16;;;;;;;16.80;7.75;;;;;;;;;;10504962;28;20040;-81
2023/02/09 15:05:42;;;;;;;18.25;7.68;;;;;;;;;;10499059;28;20432;-82
2023/02/09 15:10:53;;;;;;;19.88;7.57;;;;;;;;;;10501967;28;20486;-80
2023/02/09 15:16:07;;;;;;;21.10;7.75;;;;;;;;;;10493825;28;20057;-81
2023/02/09 15:21:14;;;;;;;17.17;7.32;;;;;;;;;;10515865;28;20144;-81
2023/02/09 15:26:38;;;;;;;22.88;7.85;;;;;;;;;;10517531;28;20800;-80
2023/02/09 15:31:46;;;;;;;22.27;7.88;;;;;;;;;;10513449;28;20067;-80
2023/02/09 15:37:17;;;;;;;14.75;6.75;;;;;;;;;;10496831;28;20101;-81
2023/02/09 15:47:55;;;;;;;19.35;7.35;;;;;;;;;;10532287;28;20036;-80
2023/02/09 15:53:04;;;;;;;21.10;7.65;;;;;;;;;;10488246;28;20055;-80
2023/02/09 15:58:12;;;;;;;23.33;8.05;;;;;;;;;;10526734;28;20484;-80
2023/02/09 16:03:20;;;;;;;19.65;7.88;;;;;;;;;;10522465;28;20553;-80
2023/02/09 16:08:39;;;;;;;19.73;7.65;;;;;;;;;;10525876;28;20212;-80
2023/02/09 16:13:43;;;;;;;19.35;7.60;;;;;;;;;;10527200;28;20044;-79
2023/02/09 16:18:53;;;;;;;19.10;8.02;;;;;;;;;;10503294;28;20041;-81
2023/02/09 16:24:03;;;;;;;24.73;8.27;;;;;;;;;;10516207;28;20048;-81
2023/02/09 16:29:15;;;;;;;24.93;9.10;;;;;;;;;;10530295;28;20054;-79
2023/02/09 16:34:24;;;;;;;24.13;7.97;;;;;;;;;;10538332;28;20517;-79
2023/02/09 16:39:31;;;;;;;24.13;7.80;;;;;;;;;;10489561;28;20120;-79
2023/02/09 16:44:39;;;;;;;29.03;8.90;;;;;;;;;;10528523;28;20052;-80
2023/02/09 16:55:16;;;;;;;23.07;8.43;;;;;;;;;;10522978;28;20062;-79
2023/02/09 17:00:30;;;;;;;24.00;7.80;;;;;;;;;;10502010;28;20518;-80
2023/02/09 17:05:37;;;;;;;22.83;8.68;;;;;;;;;;10479758;28;20036;-80
2023/02/09 17:10:45;;;;;;;24.27;8.37;;;;;;;;;;10491132;28;20036;-79
2023/02/09 17:15:58;;;;;;;21.43;8.20;;;;;;;;;;10515520;28;20421;-80
2023/02/09 17:21:11;;;;;;;27.97;8.33;;;;;;;;;;10488735;28;20040;-79
2023/02/09 17:26:21;;;;;;;24.17;7.07;;;;;;;;;;10502085;28;20135;-80
2023/02/09 17:31:47;;;;;;;24.53;8.13;;;;;;;;;;10523117;28;20080;-80
2023/02/09 17:36:59;;;;;;;23.10;7.53;;;;;;;;;;10501081;28;20474;-80
2023/02/09 17:42:05;;;;;;;25.37;8.40;;;;;;;;;;10510683;28;20146;-79
2023/02/09 17:47:20;;;;;;;28.73;9.17;;;;;;;;;;10521077;28;20052;-80
2023/02/09 17:52:33;;;;;;;22.87;8.10;;;;;;;;;;10498955;28;20518;-80
2023/02/09 17:57:41;;;;;;;22.10;7.80;;;;;;;;;;10488701;28;20048;-80
2023/02/09 18:02:47;;;;;;;29.87;10.30;;;;;;;;;;10515745;28;20048;-80
2023/02/09 18:07:59;;;;;;;21.23;7.87;;;;;;;;;;10522077;28;20385;-79
2023/02/09 18:13:05;;;;;;;31.63;10.57;;;;;;;;;;10519667;28;20048;-80
2023/02/09 18:18:12;;;;;;;36.20;12.60;;;;;;;;;;10499541;28;20256;-79
2023/02/09 18:23:21;;;;;;;34.87;11.13;;;;;;;;;;10513487;28;20056;-79
2023/02/09 18:28:31;;;;;;;30.27;10.48;;;;;;;;;;10513099;28;20076;-79
2023/02/09 18:33:39;;;;;;;30.43;9.63;;;;;;;;;;10515257;28;20055;-79
2023/02/09 18:44:08;;;;;;;40.53;11.90;;;;;;;;;;10517841;28;20347;-79
2023/02/09 18:49:25;;;;;;;31.10;12.27;;;;;;;;;;10499965;28;20130;-79
2023/02/09 18:54:34;;;;;;;35.43;11.47;;;;;;;;;;10510678;28;20052;-79
2023/02/09 18:59:47;;;;;;;34.27;11.60;;;;;;;;;;10516350;28;20398;-79
2023/02/09 19:04:55;;;;;;;34.80;10.70;;;;;;;;;;10519707;28;20203;-79
2023/02/09 19:10:07;;;;;;;35.57;11.20;;;;;;;;;;10496522;28;20054;-79
2023/02/09 19:15:11;;;;;;;36.90;11.73;;;;;;;;;;10521710;28;20068;-79
2023/02/09 19:20:20;;;;;;;32.50;11.70;;;;;;;;;;10507332;28;20056;-78
2023/02/09 19:25:26;;;;;;;39.73;11.53;;;;;;;;;;10494996;28;20032;-78
2023/02/09 19:30:33;;;;;;;40.70;13.23;;;;;;;;;;10521081;28;20378;-78
2023/02/09 19:35:49;;;;;;;41.70;12.13;;;;;;;;;;10495238;28;20131;-79
2023/02/09 19:41:03;;;;;;;40.47;11.93;;;;;;;;;;10524578;28;20431;-79
2023/02/09 19:51:35;;;;;;;40.13;12.33;;;;;;;;;;10519469;28;20040;-80
2023/02/09 19:56:44;;;;;;;36.07;12.80;;;;;;;;;;10490132;28;20568;-80
2023/02/09 20:01:51;;;;;;;40.93;13.03;;;;;;;;;;10514824;28;20485;-80
2023/02/09 20:06:54;;;;;;;41.70;13.50;;;;;;;;;;10521973;28;20147;-78
2023/02/09 20:12:05;;;;;;;36.10;13.77;;;;;;;;;;10499889;28;20038;-81
2023/02/09 20:17:10;;;;;;;41.13;13.63;;;;;;;;;;10528862;28;20449;-78
2023/02/09 20:22:24;;;;;;;39.50;13.05;;;;;;;;;;10505098;28;20523;-79
2023/02/09 20:27:36;;;;;;;38.27;12.27;;;;;;;;;;10502108;28;20056;-79
2023/02/09 20:32:48;;;;;;;36.60;11.43;;;;;;;;;;10524909;28;20056;-80
2023/02/09 20:38:33;;;;;;;19.00;7.47;;;;;;;;;;10525235;28;20058;-79
2023/02/09 20:49:04;;;;;;;34.27;10.53;;;;;;;;;;10514297;28;20117;-79
2023/02/09 20:54:11;;;;;;;43.63;12.10;;;;;;;;;;10521290;28;20048;-79
2023/02/09 20:59:27;;;;;;;36.50;12.23;;;;;;;;;;10513322;28;20044;-79
2023/02/09 21:05:00;;;;;;;34.77;11.63;;;;;;;;;;10477345;27;20415;-80
2023/02/09 21:10:02;;;;;;;37.90;12.07;;;;;;;;;;10469305;28;20055;-78
2023/02/09 21:15:05;;;;;;;37.60;11.43;;;;;;;;;;10464470;28;20402;-78
2023/02/09 21:20:10;;;;;;;36.23;11.73;;;;;;;;;;10470464;28;20044;-78
2023/02/09 21:25:13;;;;;;;34.67;12.75;;;;;;;;;;10469502;28;20113;-79
2023/02/09 21:30:16;;;;;;;46.72;14.05;;;;;;;;;;10441803;28;21268;-79
2023/02/09 21:35:20;;;;;;;51.73;15.60;;;;;;;;;;10466424;28;20088;-79
2023/02/09 21:40:23;;;;;;;51.03;14.50;;;;;;;;;;10463643;28;20413;-79
2023/02/09 21:45:26;;;;;;;46.97;15.07;;;;;;;;;;10461646;28;20052;-79
2023/02/09 21:50:30;;;;;;;46.37;16.13;;;;;;;;;;10460527;28;20119;-79
2023/02/09 21:55:33;;;;;;;40.78;14.65;;;;;;;;;;10464652;28;20044;-80
2023/02/09 22:00:36;;;;;;;44.67;15.33;;;;;;;;;;10467309;28;20099;-79
2023/02/09 22:05:40;;;;;;;43.87;14.70;;;;;;;;;;10457740;28;20044;-79
2023/02/09 22:10:43;;;;;;;49.38;15.48;;;;;;;;;;10465766;28;20029;-79
2023/02/09 22:15:46;;;;;;;42.07;14.53;;;;;;;;;;10447604;28;20140;-80
2023/02/09 22:20:50;;;;;;;41.87;14.10;;;;;;;;;;10416767;28;20120;-79
2023/02/09 22:25:57;;;;;;;46.27;15.07;;;;;;;;;;10440570;28;20045;-80
2023/02/09 22:31:04;;;;;;;37.57;14.43;;;;;;;;;;10412920;28;20045;-80
2023/02/09 22:36:11;;;;;;;38.97;14.37;;;;;;;;;;10438824;28;20037;-78
2023/02/09 22:41:21;;;;;;;43.23;12.77;;;;;;;;;;10434881;28;20135;-79
2023/02/09 22:46:24;;;;;;;30.33;10.33;;;;;;;;;;10440203;28;20063;-79
2023/02/09 22:51:29;;;;;;;35.87;12.70;;;;;;;;;;10422189;28;20033;-79
2023/02/09 22:56:32;;;;;;;39.57;13.63;;;;;;;;;;10442258;28;20090;-79
2023/02/09 23:01:35;;;;;;;45.17;13.57;;;;;;;;;;10432219;28;20037;-79
2023/02/09 23:06:39;;;;;;;40.27;13.33;;;;;;;;;;10440058;28;20487;-78
2023/02/09 23:11:43;;;;;;;;;;;;;;;;;;10433791;28;20222;-79
2023/02/09 23:16:45;;;;;;;22.97;10.07;;;;;;;;;;10430105;28;20464;-79
2023/02/09 23:21:50;;;;;;;26.73;9.97;;;;;;;;;;10434890;28;20091;-79
2023/02/09 23:26:53;;;;;;;29.90;9.87;;;;;;;;;;10429659;28;20075;-80
2023/02/09 23:31:57;;;;;;;23.57;8.30;;;;;;;;;;10435872;28;20037;-79
2023/02/09 23:37:03;;;;;;;22.13;6.93;;;;;;;;;;10431002;28;20079;-79
2023/02/09 23:42:20;;;;;;;10.90;6.00;;;;;;;;;;10436950;28;20031;-79
2023/02/09 23:47:23;;;;;;;24.93;7.60;;;;;;;;;;10437830;28;20045;-79
2023/02/09 23:52:27;;;;;;;7.03;2.90;;;;;;;;;;10434824;28;20051;-78
2023/02/09 23:57:30;;;;;;;18.63;7.43;;;;;;;;;;10436231;28;20049;-79
